N47508 KPUJ-KPDK
Flight info
| Callsign | N47508 |
|---|---|
| Flight time | N/A |
| Altitude | VFR |
| Route | |
| Aircraft | P28A/L-VGD/C |
Departure
| Time | N/A |
|---|---|
| Airport | Silver Comet Field at Paulding Northwest Atlanta Airport (KPUJ) |
Arrival
| Time | 2026-04-21 00:28 |
|---|---|
| Airport | DeKalb Peachtree Airport (KPDK) |
| Time | Latitude | Longitude | Altitude | Speed | Heading |
|---|---|---|---|---|---|
| 2026-04-21 00:24 | 33.88826 | -84.21126 | 3078 ft | 85 kts | 338° |
| 2026-04-21 00:24 | 33.89269 | -84.21552 | 2994 ft | 82 kts | 312° |
| 2026-04-21 00:24 | 33.89585 | -84.22137 | 2872 ft | 85 kts | 304° |
| 2026-04-21 00:25 | 33.89826 | -84.22769 | 2790 ft | 83 kts | 295° |
| 2026-04-21 00:25 | 33.89943 | -84.23483 | 2655 ft | 89 kts | 283° |
| 2026-04-21 00:25 | 33.89943 | -84.24221 | 2567 ft | 89 kts | 273° |
| 2026-04-21 00:25 | 33.89874 | -84.24966 | 2440 ft | 90 kts | 274° |
| 2026-04-21 00:26 | 33.89847 | -84.25720 | 2334 ft | 91 kts | 268° |
| 2026-04-21 00:26 | 33.89771 | -84.26472 | 2212 ft | 90 kts | 278° |
| 2026-04-21 00:26 | 33.89814 | -84.27168 | 2194 ft | 77 kts | 277° |
| 2026-04-21 00:26 | 33.89836 | -84.27838 | 2052 ft | 84 kts | 279° |
| 2026-04-21 00:27 | 33.89842 | -84.28509 | 1980 ft | 77 kts | 268° |
| 2026-04-21 00:27 | 33.89556 | -84.29092 | 1733 ft | 85 kts | 225° |
| 2026-04-21 00:27 | 33.89035 | -84.29369 | 1452 ft | 86 kts | 201° |
| 2026-04-21 00:27 | 33.88515 | -84.29662 | 1202 ft | 75 kts | 209° |
| 2026-04-21 00:28 | 33.88038 | -84.29874 | 1018 ft | 67 kts | 215° |
| 2026-04-21 00:28 | 33.87677 | -84.30054 | 978 ft | 40 kts | 183° |
| 2026-04-21 00:28 | 33.87538 | -84.30100 | 983 ft | 15 kts | 222° |
| 2026-04-21 00:28 | 33.87546 | -84.30130 | 983 ft | 2 kts | 332° |
| 2026-04-21 00:29 | 33.87597 | -84.30143 | 982 ft | 20 kts | 342° |
| 2026-04-21 00:29 | 33.87650 | -84.30166 | 980 ft | 0 kts | 340° |
| 2026-04-21 00:29 | 33.87654 | -84.30167 | 980 ft | 1 kts | 336° |
| 2026-04-21 00:29 | 33.87668 | -84.30177 | 979 ft | 7 kts | 331° |
| 2026-04-21 00:30 | 33.87756 | -84.30221 | 977 ft | 15 kts | 338° |
| 2026-04-21 00:30 | 33.87847 | -84.30267 | 976 ft | 13 kts | 335° |
| 2026-04-21 00:30 | 33.87925 | -84.30305 | 976 ft | 9 kts | 335° |
| 2026-04-21 00:30 | 33.87966 | -84.30327 | 977 ft | 3 kts | 335° |
| 2026-04-21 00:31 | 33.87985 | -84.30332 | 977 ft | 4 kts | 10° |
| 2026-04-21 00:31 | 33.88023 | -84.30310 | 977 ft | 9 kts | 14° |
| 2026-04-21 00:31 | 33.88072 | -84.30327 | 979 ft | 4 kts | 328° |
| 2026-04-21 00:31 | 33.88102 | -84.30353 | 981 ft | 7 kts | 321° |
| 2026-04-21 00:32 | 33.88170 | -84.30393 | 983 ft | 12 kts | 345° |
| 2026-04-21 00:32 | 33.88227 | -84.30423 | 986 ft | 5 kts | 338° |
| 2026-04-21 00:32 | 33.88253 | -84.30429 | 988 ft | 5 kts | 356° |
| 2026-04-21 00:32 | 33.88279 | -84.30424 | 988 ft | 5 kts | 54° |
| 2026-04-21 00:33 | 33.88284 | -84.30364 | 987 ft | 7 kts | 82° |
| 2026-04-21 00:33 | 33.88292 | -84.30345 | 987 ft | 0 kts | 33° |
| 2026-04-21 00:33 | 33.88300 | -84.30343 | 987 ft | 0 kts | 3° |